Time;durP1;ratioP1;P1;durP2;ratioP2;P2;SDS_P1;SDS_P2;PMS_P1;PMS_P2;Temp;Humidity;BMP_temperature;BMP_pressure;BME280_temperature;BME280_humidity;BME280_pressure;Samples;Min_cycle;Max_cycle;Signal;HPM_P1;HPM_P2
2022/08/11 00:01:49;;;;;;;0.63;0.50;;;23.00;59.50;;;;;;4942246;28;20034;-67
2022/08/11 00:04:17;;;;;;;0.25;0.15;;;23.00;59.50;;;;;;4957262;28;20073;-66
2022/08/11 00:06:47;;;;;;;0.05;0.05;;;23.00;59.60;;;;;;4974941;28;20034;-66
2022/08/11 00:09:21;;;;;;;0.30;0.30;;;23.00;59.60;;;;;;4941154;28;20031;-66
2022/08/11 00:11:55;;;;;;;0.25;0.25;;;23.00;60.20;;;;;;4942203;28;20041;-66
2022/08/11 00:14:28;;;;;;;0.20;0.20;;;23.00;59.70;;;;;;4957106;28;20066;-66
2022/08/11 00:16:55;;;;;;;2.47;0.70;;;22.90;59.60;;;;;;4958046;28;20080;-66
2022/08/11 00:19:29;;;;;;;0.00;0.00;;;22.90;59.50;;;;;;4974284;28;20026;-66
2022/08/11 00:21:56;;;;;;;0.10;0.10;;;23.00;59.50;;;;;;4958201;28;20637;-66
2022/08/11 00:24:23;;;;;;;0.10;0.10;;;23.00;59.50;;;;;;4957111;28;20022;-66
2022/08/11 00:26:53;;;;;;;0.90;0.82;;;23.00;59.50;;;;;;4974519;28;20034;-66
2022/08/11 00:29:21;;;;;;;0.20;0.13;;;22.90;59.80;;;;;;4957166;28;20030;-66
2022/08/11 00:31:51;;;;;;;0.65;0.35;;;22.90;60.20;;;;;;4957188;28;20027;-66
2022/08/11 00:34:30;;;;;;;0.65;0.47;;;22.80;60.00;;;;;;4956951;28;20047;-67
2022/08/11 00:37:08;;;;;;;0.08;0.08;;;22.80;60.20;;;;;;4957431;28;20047;-66
2022/08/11 00:39:43;;;;;;;3.10;1.45;;;22.80;60.30;;;;;;4956902;28;20066;-66
2022/08/11 00:42:53;;;;;;;0.28;0.28;;;22.80;60.50;;;;;;4940642;28;20398;-66
2022/08/11 00:45:33;;;;;;;0.50;0.43;;;22.80;61.10;;;;;;4974072;28;20051;-66
2022/08/11 00:48:35;;;;;;;0.32;0.17;;;22.70;60.90;;;;;;4957389;28;20035;-66
2022/08/11 00:51:13;;;;;;;;;;;22.60;61.80;;;;;;4957703;28;20043;-66
2022/08/11 00:54:35;;;;;;;0.10;0.10;;;22.40;62.00;;;;;;4973913;28;19914;-66
2022/08/11 00:57:31;;;;;;;0.43;0.40;;;22.20;62.60;;;;;;4973983;28;20043;-66
2022/08/11 01:00:16;;;;;;;0.60;0.17;;;22.10;63.00;;;;;;4973369;28;20093;-66
2022/08/11 01:02:56;;;;;;;0.38;0.38;;;22.00;62.90;;;;;;4956400;28;20022;-66
2022/08/11 01:06:03;;;;;;;0.00;0.00;;;21.90;63.20;;;;;;4939566;29;20036;-66
2022/08/11 01:09:24;;;;;;;0.05;0.05;;;22.00;63.50;;;;;;4953616;29;20034;-66
2022/08/11 01:11:56;;;;;;;;;;;22.10;63.40;;;;;;4948185;29;20090;-66
2022/08/11 01:14:56;;;;;;;0.63;0.30;;;22.10;63.30;;;;;;4954238;29;19962;-66
2022/08/11 01:17:40;;;;;;;0.00;0.00;;;22.10;63.20;;;;;;4935016;29;20036;-66
2022/08/11 01:20:40;;;;;;;3.00;0.70;;;22.00;63.10;;;;;;4934505;29;20448;-66
2022/08/11 01:24:11;;;;;;;0.43;0.43;;;22.10;63.60;;;;;;4934909;29;20036;-66
2022/08/11 01:26:46;;;;;;;;;;;22.10;63.50;;;;;;4954477;29;20447;-66
2022/08/11 01:29:51;;;;;;;0.28;0.28;;;22.00;63.20;;;;;;4953588;29;19911;-66
2022/08/11 01:32:41;;;;;;;0.00;0.00;;;22.00;63.30;;;;;;4953394;28;20511;-66
2022/08/11 01:36:06;;;;;;;0.20;0.20;;;21.90;63.80;;;;;;4954322;29;20114;-66
2022/08/11 01:38:54;;;;;;;0.30;0.13;;;21.80;63.70;;;;;;4953409;29;20086;-66
2022/08/11 01:44:51;;;;;;;1.35;0.75;;;21.60;64.20;;;;;;4953156;28;20035;-66
2022/08/11 01:47:50;;;;;;;0.63;0.43;;;21.60;64.80;;;;;;4954177;29;20041;-66
2022/08/11 01:50:36;;;;;;;0.30;0.30;;;21.50;64.90;;;;;;4953122;29;20090;-66
2022/08/11 01:53:27;;;;;;;0.63;0.47;;;21.60;64.70;;;;;;4952951;29;20393;-66
2022/08/11 01:56:41;;;;;;;0.70;0.70;;;21.50;64.90;;;;;;4936574;29;20051;-66
2022/08/11 01:59:38;;;;;;;3.78;0.55;;;21.50;65.20;;;;;;4953090;29;20399;-66
2022/08/11 02:02:46;;;;;;;0.25;0.25;;;21.50;64.80;;;;;;4936622;29;20035;-66
2022/08/11 02:05:41;;;;;;;0.10;0.10;;;21.50;65.30;;;;;;4939023;29;20435;-66
2022/08/11 02:08:15;;;;;;;0.20;0.20;;;21.60;65.00;;;;;;4953303;29;20031;-67
2022/08/11 02:11:34;;;;;;;0.05;0.05;;;21.60;65.00;;;;;;4952973;29;20492;-66
2022/08/11 02:14:30;;;;;;;1.30;0.70;;;21.50;65.30;;;;;;4943967;28;20054;-66
2022/08/11 02:17:14;;;;;;;0.00;0.00;;;21.40;65.40;;;;;;4932900;29;20074;-66
2022/08/11 02:23:38;;;;;;;;;;;21.30;65.80;;;;;;4875298;29;20033;-66
2022/08/11 02:26:26;;;;;;;0.00;0.00;;;21.30;66.10;;;;;;4917971;29;20424;-66
2022/08/11 02:29:28;;;;;;;0.00;0.00;;;21.30;66.30;;;;;;4917444;29;20051;-66
2022/08/11 02:35:27;;;;;;;0.00;0.00;;;21.10;68.00;;;;;;4933872;29;20472;-66
2022/08/11 02:38:05;;;;;;;7.07;0.47;;;20.90;68.70;;;;;;4917041;29;20055;-66
2022/08/11 02:40:46;;;;;;;0.20;0.10;;;20.80;69.00;;;;;;4933303;29;20107;-66
2022/08/11 02:43:38;;;;;;;0.00;0.00;;;20.70;69.50;;;;;;4933800;29;20488;-66
2022/08/11 02:46:24;;;;;;;0.50;0.50;;;20.70;69.70;;;;;;4919469;29;20054;-66
2022/08/11 02:49:53;;;;;;;0.00;0.00;;;20.70;69.70;;;;;;4916835;29;20036;-66
2022/08/11 02:52:50;;;;;;;0.20;0.20;;;20.60;69.80;;;;;;4922712;29;20488;-66
2022/08/11 02:55:54;;;;;;;0.20;0.20;;;20.60;69.90;;;;;;4917724;29;20139;-66
2022/08/11 03:01:55;;;;;;;0.73;0.50;;;20.60;70.40;;;;;;4923938;29;20028;-66
2022/08/11 03:04:57;;;;;;;0.08;0.08;;;20.60;70.10;;;;;;4937197;29;20035;-66
2022/08/11 03:07:51;;;;;;;0.10;0.10;;;20.70;69.40;;;;;;4947921;29;20516;-66
2022/08/11 03:17:37;;;;;;;0.10;0.10;;;21.10;68.40;;;;;;4925133;29;20035;-66
2022/08/11 03:20:23;;;;;;;0.28;0.28;;;21.10;68.10;;;;;;4945983;29;20034;-66
2022/08/11 03:23:30;;;;;;;0.20;0.20;;;21.20;67.90;;;;;;4955890;29;20483;-66
2022/08/11 03:26:23;;;;;;;0.10;0.10;;;21.10;68.90;;;;;;4938836;29;20426;-66
2022/08/11 03:29:00;;;;;;;0.00;0.00;;;20.90;69.20;;;;;;4954609;29;20031;-66
2022/08/11 03:31:55;;;;;;;0.30;0.30;;;20.80;69.70;;;;;;4938988;29;20039;-67
2022/08/11 03:34:25;;;;;;;0.00;0.00;;;20.70;70.00;;;;;;4954205;29;20038;-67
2022/08/11 03:41:41;;;;;;;0.60;0.60;;;20.60;70.50;;;;;;4955314;29;20130;-66
2022/08/11 03:43:38;;;;;;;0.00;0.00;;;20.40;71.30;;;;;;4955177;29;20037;-66
2022/08/11 03:46:44;;;;;;;0.65;0.65;;;20.30;71.70;;;;;;4922800;29;20088;-66
2022/08/11 03:49:47;;;;;;;0.00;0.00;;;20.20;72.10;;;;;;4895771;28;20051;-66
2022/08/11 03:52:30;;;;;;;0.00;0.00;;;20.10;72.80;;;;;;4936056;29;20039;-66
2022/08/11 03:55:17;;;;;;;0.40;0.40;;;20.00;72.90;;;;;;4935996;29;20444;-65
2022/08/11 03:58:21;;;;;;;0.57;0.38;;;20.00;73.40;;;;;;4933165;29;20032;-65
2022/08/11 04:01:25;;;;;;;1.08;0.30;;;19.90;73.50;;;;;;4917326;29;20031;-65
2022/08/11 04:04:39;;;;;;;0.20;0.15;;;19.90;73.40;;;;;;4935142;29;20130;-64
2022/08/11 04:08:17;;;;;;;0.20;0.20;;;19.90;73.90;;;;;;4928267;29;20035;-65
2022/08/11 04:11:13;;;;;;;0.08;0.08;;;19.80;74.00;;;;;;4883241;29;20044;-65
2022/08/11 04:17:52;;;;;;;1.52;0.38;;;19.70;73.60;;;;;;4932996;29;20551;-65
2022/08/11 04:20:40;;;;;;;0.30;0.30;;;19.70;74.60;;;;;;4935499;29;20040;-63
2022/08/11 04:24:02;;;;;;;0.00;0.00;;;19.60;74.80;;;;;;4935595;29;20034;-63
2022/08/11 04:26:56;;;;;;;0.00;0.00;;;19.60;74.80;;;;;;4918589;29;20047;-62
2022/08/11 04:29:53;;;;;;;0.00;0.00;;;19.60;74.50;;;;;;4915265;29;20039;-70
2022/08/11 04:33:02;;;;;;;0.13;0.13;;;19.60;74.30;;;;;;4916578;29;20045;-71
2022/08/11 04:35:48;;;;;;;0.98;0.40;;;19.60;74.40;;;;;;4916466;29;20475;-71
2022/08/11 04:38:57;;;;;;;0.00;0.00;;;19.60;74.30;;;;;;4900215;29;20047;-70
2022/08/11 04:45:46;;;;;;;0.10;0.10;;;19.70;74.30;;;;;;4876667;29;20075;-70
2022/08/11 05:02:16;;;;;;;0.20;0.08;;;20.30;71.70;;;;;;4929912;29;20405;-71
2022/08/11 05:05:31;;;;;;;0.15;0.15;;;20.30;71.50;;;;;;4928190;29;20055;-70
2022/08/11 05:08:34;;;;;;;0.45;0.20;;;20.10;71.50;;;;;;4909068;28;20034;-70
2022/08/11 05:11:44;;;;;;;0.00;0.00;;;20.10;72.40;;;;;;4953779;29;20039;-69
2022/08/11 05:37:19;;;;;;;0.28;0.20;;;20.50;72.30;;;;;;4953396;29;20548;-75
2022/08/11 05:56:55;;;;;;;0.00;0.00;;;20.70;72.40;;;;;;4933030;29;20488;-74
2022/08/11 05:59:24;;;;;;;0.50;0.50;;;20.60;72.30;;;;;;4917309;29;20059;-74
2022/08/11 06:01:50;;;;;;;0.47;0.47;;;20.70;72.60;;;;;;4923431;29;20112;-74
2022/08/11 06:04:22;;;;;;;0.43;0.43;;;20.80;72.60;;;;;;4932127;29;20515;-74
2022/08/11 06:07:08;;;;;;;1.13;0.50;;;20.90;72.60;;;;;;4936765;28;20032;-73
2022/08/11 06:09:48;;;;;;;0.22;0.22;;;20.90;72.50;;;;;;4963874;28;20412;-73
2022/08/11 06:12:31;;;;;;;1.33;0.77;;;21.00;72.30;;;;;;4934409;29;20085;-72
2022/08/11 06:15:04;;;;;;;0.20;0.20;;;21.00;72.00;;;;;;4966285;28;20070;-73
2022/08/11 06:17:32;;;;;;;0.35;0.35;;;21.10;71.90;;;;;;4952194;29;20114;-73
2022/08/11 06:20:11;;;;;;;0.30;0.30;;;21.10;71.60;;;;;;4935086;29;20031;-73
2022/08/11 06:22:40;;;;;;;5.05;0.82;;;21.20;72.00;;;;;;4951097;29;20034;-74
2022/08/11 06:25:08;;;;;;;0.10;0.00;;;21.30;71.50;;;;;;4951829;29;20038;-74
2022/08/11 06:27:37;;;;;;;0.13;0.08;;;21.30;71.40;;;;;;4950926;29;20039;-74
2022/08/11 06:30:12;;;;;;;2.85;0.52;;;21.40;72.00;;;;;;4952162;29;20031;-74
2022/08/11 06:32:50;;;;;;;0.00;0.00;;;21.40;71.90;;;;;;4935193;29;20041;-74
2022/08/11 06:35:35;;;;;;;1.98;1.08;;;21.60;71.70;;;;;;4951240;29;20035;-74
2022/08/11 06:38:22;;;;;;;0.85;0.82;;;21.70;71.20;;;;;;4951775;29;20031;-74
2022/08/11 06:41:29;;;;;;;0.00;0.00;;;21.70;70.60;;;;;;4951619;29;20033;-74
2022/08/11 06:44:13;;;;;;;0.40;0.40;;;21.90;70.40;;;;;;4951513;29;20042;-73
2022/08/11 06:46:50;;;;;;;0.65;0.63;;;22.00;70.30;;;;;;4952823;29;20086;-73
2022/08/11 06:52:16;;;;;;;0.15;0.15;;;22.20;70.00;;;;;;4952307;29;20118;-72
2022/08/11 06:54:56;;;;;;;0.10;0.10;;;22.40;69.30;;;;;;4951017;29;20042;-73
2022/08/11 07:03:09;;;;;;;0.22;0.20;;;22.80;68.30;;;;;;4937419;29;20512;-73
2022/08/11 07:05:50;;;;;;;3.13;1.10;;;22.90;68.00;;;;;;4935802;29;20035;-73
2022/08/11 07:29:13;;;;;;;0.47;0.35;;;24.60;62.70;;;;;;4951314;29;20389;-73
2022/08/11 07:31:59;;;;;;;;;;;24.70;62.50;;;;;;4936044;29;20032;-73
2022/08/11 07:34:36;;;;;;;0.45;0.40;;;24.80;62.50;;;;;;4951867;29;19918;-73
2022/08/11 07:37:15;;;;;;;0.25;0.25;;;24.80;62.50;;;;;;4935508;29;20032;-74
2022/08/11 07:39:43;;;;;;;0.20;0.20;;;24.90;62.40;;;;;;4935189;29;20039;-74
2022/08/11 07:42:13;;;;;;;0.00;0.00;;;25.00;62.30;;;;;;4934926;28;20049;-74
2022/08/11 07:52:59;;;;;;;1.60;0.47;;;25.40;61.50;;;;;;4954868;29;20043;-75
2022/08/11 07:55:26;;;;;;;0.05;0.05;;;25.50;61.00;;;;;;4978060;23;20077;-73
2022/08/11 08:20:15;;;;;;;1.25;0.30;;;25.90;59.90;;;;;;4954589;29;20118;-72
2022/08/11 08:22:41;;;;;;;0.30;0.30;;;26.00;59.90;;;;;;4954787;29;20063;-73
2022/08/11 08:25:08;;;;;;;0.00;0.00;;;26.00;59.80;;;;;;4937659;29;20538;-72
2022/08/11 08:27:37;;;;;;;0.17;0.10;;;26.10;59.80;;;;;;4958787;28;20030;-73
2022/08/11 08:32:51;;;;;;;0.10;0.10;;;26.30;60.00;;;;;;4973546;28;20035;-74
2022/08/11 08:35:18;;;;;;;0.20;0.20;;;26.40;59.70;;;;;;4956539;28;20129;-72
2022/08/11 08:37:44;;;;;;;0.00;0.00;;;26.50;59.70;;;;;;4973864;28;20846;-72
2022/08/11 08:40:11;;;;;;;0.35;0.25;;;26.50;59.00;;;;;;4956268;28;20042;-73
2022/08/11 08:43:02;;;;;;;0.25;0.20;;;26.70;59.20;;;;;;4956174;28;20033;-72
2022/08/11 08:45:33;;;;;;;0.65;0.30;;;26.70;58.80;;;;;;4956985;28;20105;-73
2022/08/11 08:48:09;;;;;;;1.10;0.30;;;26.80;58.70;;;;;;4972859;28;20054;-74
2022/08/11 08:53:33;;;;;;;0.17;0.17;;;26.80;58.20;;;;;;4972788;28;20039;-74
2022/08/11 08:56:00;;;;;;;0.52;0.40;;;26.90;58.20;;;;;;4955512;28;20034;-74
2022/08/11 08:58:28;;;;;;;0.00;0.00;;;27.00;58.00;;;;;;4943376;29;20636;-72
2022/08/11 09:00:57;;;;;;;0.00;0.00;;;27.10;57.90;;;;;;4968668;28;20027;-72
2022/08/11 09:03:23;;;;;;;0.08;0.08;;;27.20;57.50;;;;;;4968014;28;20530;-72
2022/08/11 09:05:54;;;;;;;0.00;0.00;;;27.20;57.30;;;;;;4952591;29;20511;-72
2022/08/11 09:08:22;;;;;;;0.05;0.03;;;27.40;57.80;;;;;;4953939;29;20066;-73
2022/08/11 09:11:48;;;;;;;0.10;0.10;;;27.50;57.70;;;;;;4968036;28;20436;-72
2022/08/11 09:13:36;;;;;;;0.45;0.40;;;27.60;57.30;;;;;;4952101;29;20488;-72
2022/08/11 09:16:05;;;;;;;0.52;0.32;;;27.50;57.30;;;;;;4952666;29;20094;-73
2022/08/11 09:18:31;;;;;;;0.10;0.10;;;27.70;57.50;;;;;;4952754;29;20031;-73
2022/08/11 09:20:58;;;;;;;0.00;0.00;;;27.80;57.10;;;;;;4936226;29;20031;-72
2022/08/11 09:28:56;;;;;;;0.00;0.00;;;27.70;57.30;;;;;;4969002;28;20045;-73
2022/08/11 09:31:22;;;;;;;0.00;0.00;;;27.80;57.30;;;;;;4972685;28;20087;-72
2022/08/11 09:33:52;;;;;;;0.00;0.00;;;28.20;56.90;;;;;;4955152;28;20023;-73
2022/08/11 09:41:50;;;;;;;0.10;0.10;;;28.40;55.50;;;;;;4958003;28;20045;-72
2022/08/11 09:47:04;;;;;;;0.10;0.10;;;28.70;55.90;;;;;;4972483;28;20031;-73
2022/08/11 09:49:31;;;;;;;0.52;0.43;;;28.90;54.80;;;;;;4961955;28;20110;-73
2022/08/11 09:51:57;;;;;;;0.10;0.10;;;28.70;53.60;;;;;;4953077;29;20038;-73
2022/08/11 09:54:25;;;;;;;0.32;0.30;;;28.50;54.50;;;;;;4951444;29;20035;-72
2022/08/11 09:59:40;;;;;;;0.70;0.43;;;28.20;55.00;;;;;;4933120;29;20032;-72
2022/08/11 10:02:09;;;;;;;0.00;0.00;;;28.40;53.00;;;;;;4948327;29;20028;-73
2022/08/11 10:04:44;;;;;;;0.10;0.10;;;28.70;53.20;;;;;;4948318;29;20047;-72
2022/08/11 10:07:18;;;;;;;12.73;0.65;;;28.90;52.00;;;;;;4947995;28;20130;-73
2022/08/11 10:10:00;;;;;;;1.95;0.28;;;29.10;51.70;;;;;;4951538;28;20031;-73
2022/08/11 10:12:36;;;;;;;2.75;1.27;;;29.20;51.80;;;;;;4934939;29;20097;-73
2022/08/11 10:21:05;;;;;;;0.30;0.30;;;29.50;51.90;;;;;;4951607;29;20027;-72
2022/08/11 10:33:59;;;;;;;0.08;0.08;;;29.90;50.90;;;;;;4969493;28;20038;-72
2022/08/11 10:34:47;;;;;;;0.32;0.32;;;30.20;50.60;;;;;;4943648;28;20041;-71
2022/08/11 10:37:16;;;;;;;0.32;0.30;;;30.40;50.10;;;;;;4955033;28;20031;-73
2022/08/11 10:39:44;;;;;;;0.20;0.20;;;30.40;50.10;;;;;;4954344;28;20030;-72
2022/08/11 10:44:57;;;;;;;0.15;0.10;;;30.70;50.00;;;;;;4956949;28;20027;-72
2022/08/11 10:47:33;;;;;;;0.30;0.30;;;30.10;49.40;;;;;;4954444;28;20030;-71
2022/08/11 10:58:50;;;;;;;0.00;0.00;;;30.50;49.70;;;;;;4957208;28;20034;-73
2022/08/11 11:01:21;;;;;;;0.08;0.08;;;30.60;48.90;;;;;;4957478;28;20022;-73
2022/08/11 11:03:53;;;;;;;0.17;0.17;;;30.70;49.10;;;;;;4971499;28;20111;-71
2022/08/11 11:07:03;;;;;;;0.35;0.20;;;31.00;48.90;;;;;;4970706;28;20046;-72
2022/08/11 11:09:33;;;;;;;0.10;0.10;;;31.00;48.40;;;;;;4935617;29;20391;-73
2022/08/11 11:18:11;;;;;;;0.17;0.17;;;31.20;48.10;;;;;;4952365;28;20023;-73
2022/08/11 11:20:42;;;;;;;0.10;0.10;;;31.30;47.80;;;;;;4955065;29;20027;-73
2022/08/11 11:23:36;;;;;;;0.15;0.15;;;31.40;48.30;;;;;;4954569;29;20039;-74
2022/08/11 11:26:33;;;;;;;1.63;0.30;;;31.60;47.80;;;;;;4954901;29;20027;-72
2022/08/11 11:29:53;;;;;;;0.47;0.35;;;31.50;48.50;;;;;;4955093;28;20031;-72
2022/08/11 11:32:34;;;;;;;1.30;0.32;;;31.60;47.90;;;;;;4954300;29;20042;-72
2022/08/11 11:35:20;;;;;;;0.10;0.03;;;32.10;47.20;;;;;;4938184;29;20070;-72
2022/08/11 11:37:50;;;;;;;0.43;0.32;;;32.20;47.50;;;;;;4955928;29;20417;-72
2022/08/11 11:40:21;;;;;;;0.30;0.30;;;32.40;46.70;;;;;;4955010;29;20035;-72
2022/08/11 11:42:49;;;;;;;4.32;0.63;;;32.30;47.00;;;;;;4953975;29;20062;-72
2022/08/11 11:45:19;;;;;;;0.00;0.00;;;32.30;47.00;;;;;;4955426;29;20065;-73
2022/08/11 11:47:51;;;;;;;0.13;0.13;;;32.20;46.90;;;;;;4954368;29;20035;-72
2022/08/11 11:50:29;;;;;;;0.17;0.10;;;32.10;47.00;;;;;;4953835;29;20046;-73
2022/08/11 11:52:57;;;;;;;0.00;0.00;;;31.90;47.00;;;;;;4952433;29;20057;-73
2022/08/11 11:55:25;;;;;;;6.38;1.00;;;31.90;47.00;;;;;;4954129;29;20127;-72
2022/08/11 12:03:29;;;;;;;0.73;0.47;;;32.60;46.80;;;;;;4959711;28;20042;-71
2022/08/11 12:05:55;;;;;;;0.10;0.10;;;32.60;46.80;;;;;;4950879;28;20104;-72
2022/08/11 12:08:23;;;;;;;1.75;0.85;;;32.80;46.80;;;;;;4970010;28;20082;-71
2022/08/11 12:13:49;;;;;;;0.15;0.13;;;33.00;46.10;;;;;;4953808;29;20043;-71
2022/08/11 12:16:16;;;;;;;;;;;33.40;46.50;;;;;;4954517;29;20038;-72
2022/08/11 12:18:45;;;;;;;0.43;0.40;;;33.20;46.80;;;;;;4953506;29;19911;-71
2022/08/11 12:21:14;;;;;;;0.15;0.10;;;33.50;46.20;;;;;;4954821;29;20514;-71
2022/08/11 12:29:16;;;;;;;0.00;0.00;;;33.50;45.40;;;;;;4954285;28;20027;-71
2022/08/11 12:31:42;;;;;;;0.65;0.65;;;33.30;45.70;;;;;;4953079;29;20035;-71
2022/08/11 12:34:11;;;;;;;0.10;0.00;;;33.20;45.90;;;;;;4953315;29;20053;-72
2022/08/11 12:37:04;;;;;;;0.30;0.20;;;33.30;45.50;;;;;;4953443;29;20034;-72
2022/08/11 12:45:26;;;;;;;0.35;0.25;;;33.00;46.60;;;;;;4954402;29;20031;-72
2022/08/11 12:54:13;;;;;;;0.20;0.20;;;33.00;46.60;;;;;;4953939;29;20488;-72
2022/08/11 13:05:07;;;;;;;0.28;0.15;;;33.20;43.80;;;;;;4952776;29;20110;-72
2022/08/11 13:07:36;;;;;;;1.98;0.35;;;33.60;44.10;;;;;;4954123;29;20031;-71
2022/08/11 13:10:07;;;;;;;0.00;0.00;;;32.80;44.50;;;;;;4952638;29;20098;-71
2022/08/11 13:12:49;;;;;;;0.00;0.00;;;33.30;44.90;;;;;;4953448;29;20095;-72
2022/08/11 13:15:21;;;;;;;1.73;0.60;;;33.70;44.40;;;;;;4953953;29;20102;-71
2022/08/11 13:17:50;;;;;;;0.60;0.43;;;33.80;44.80;;;;;;4953955;29;20030;-72
2022/08/11 13:20:19;;;;;;;0.30;0.30;;;34.00;44.60;;;;;;4952190;29;20029;-72
2022/08/11 13:22:49;;;;;;;0.28;0.20;;;34.60;44.60;;;;;;4953446;29;20042;-72
2022/08/11 13:25:16;;;;;;;;;;;34.70;43.80;;;;;;4954201;29;20039;-72
2022/08/11 13:27:46;;;;;;;0.20;0.10;;;35.00;43.30;;;;;;4953075;28;19914;-72
2022/08/11 13:33:04;;;;;;;0.20;0.20;;;35.30;43.10;;;;;;4951836;29;20399;-73
2022/08/11 13:35:31;;;;;;;0.73;0.70;;;35.00;42.90;;;;;;4936281;29;20717;-72
2022/08/11 13:38:01;;;;;;;0.05;0.05;;;34.40;44.50;;;;;;4952068;29;20396;-72
2022/08/11 13:40:28;;;;;;;0.08;0.08;;;35.00;44.20;;;;;;4951252;28;20104;-73
2022/08/11 13:42:54;;;;;;;0.25;0.13;;;35.70;43.00;;;;;;4951821;29;20069;-71
2022/08/11 13:45:24;;;;;;;0.40;0.32;;;36.20;42.60;;;;;;4953081;29;20038;-72
2022/08/11 13:47:56;;;;;;;0.05;0.05;;;36.30;42.80;;;;;;4952054;29;20054;-72
2022/08/11 13:53:13;;;;;;;0.38;0.25;;;37.10;41.80;;;;;;4951927;29;20035;-71
2022/08/11 13:55:41;;;;;;;0.22;0.15;;;37.20;41.20;;;;;;4962992;23;20835;-70
2022/08/11 13:58:10;;;;;;;0.38;0.30;;;37.70;41.90;;;;;;4935833;29;20115;-70
2022/08/11 14:00:37;;;;;;;0.00;0.00;;;38.40;41.50;;;;;;4932729;29;20034;-70
2022/08/11 14:03:11;;;;;;;1.30;0.75;;;37.50;41.40;;;;;;4933408;29;20556;-70
2022/08/11 14:05:51;;;;;;;0.03;0.03;;;35.80;41.60;;;;;;4924962;29;20088;-70
2022/08/11 14:08:23;;;;;;;0.30;0.20;;;36.00;41.90;;;;;;4913879;29;20123;-70
2022/08/11 14:13:36;;;;;;;0.25;0.20;;;35.70;42.50;;;;;;4914723;29;20024;-70
2022/08/11 14:13:40;;;;;;;0.10;0.10;;;37.20;42.10;;;;;;4913403;29;20520;-70
2022/08/11 14:16:30;;;;;;;1.15;0.57;;;37.50;41.40;;;;;;4929353;29;20449;-70
2022/08/11 14:19:07;;;;;;;0.15;0.15;;;37.60;41.20;;;;;;4927601;29;20039;-70
2022/08/11 14:24:26;;;;;;;0.10;0.10;;;38.20;41.40;;;;;;4926886;29;20494;-70
2022/08/11 14:26:53;;;;;;;0.20;0.20;;;37.70;40.30;;;;;;4914976;29;20032;-68
2022/08/11 14:29:22;;;;;;;1.25;0.35;;;38.00;41.00;;;;;;4925388;29;20084;-69
2022/08/11 14:32:01;;;;;;;0.20;0.10;;;38.80;40.70;;;;;;4896392;29;20289;-69
2022/08/11 14:34:30;;;;;;;0.08;0.08;;;36.80;41.30;;;;;;4924982;29;20045;-69
2022/08/11 14:37:27;;;;;;;0.27;0.20;;;38.30;40.80;;;;;;4925545;29;20024;-69
2022/08/11 14:39:58;;;;;;;0.20;0.10;;;38.80;40.50;;;;;;4895482;29;20092;-69
2022/08/11 14:48:08;;;;;;;0.63;0.50;;;37.80;40.30;;;;;;4895637;29;20048;-69
2022/08/11 14:50:35;;;;;;;2.67;0.93;;;36.40;40.40;;;;;;4893761;29;20047;-68
2022/08/11 14:53:09;;;;;;;2.90;0.22;;;37.30;40.80;;;;;;4898133;29;20067;-69
2022/08/11 14:58:28;;;;;;;0.10;0.00;;;37.50;40.30;;;;;;4930367;29;20035;-69
2022/08/11 15:00:57;;;;;;;0.05;0.05;;;37.80;40.00;;;;;;4916815;29;20068;-69
2022/08/11 15:03:25;;;;;;;0.32;0.25;;;36.30;40.80;;;;;;4917572;29;20477;-69
2022/08/11 15:05:55;;;;;;;0.28;0.25;;;36.20;41.40;;;;;;4932663;29;20051;-70
2022/08/11 15:08:53;;;;;;;0.10;0.10;;;36.60;40.90;;;;;;4932392;29;20086;-70
2022/08/11 15:13:58;;;;;;;0.10;0.10;;;36.50;40.20;;;;;;4943061;28;20034;-70
2022/08/11 15:19:12;;;;;;;0.80;0.38;;;35.70;40.80;;;;;;4943127;29;20032;-71
2022/08/11 15:24:23;;;;;;;0.20;0.20;;;37.10;39.70;;;;;;4943356;29;20391;-70
2022/08/11 15:38:01;;;;;;;0.00;0.00;;;38.00;39.20;;;;;;4916831;29;20043;-71
2022/08/11 15:46:46;;;;;;;0.52;0.30;;;37.90;39.90;;;;;;4929257;29;20036;-71
2022/08/11 15:49:19;;;;;;;0.00;0.00;;;37.70;39.30;;;;;;4931347;29;20052;-71
2022/08/11 15:51:48;;;;;;;0.20;0.20;;;39.10;39.30;;;;;;4931837;29;20532;-70
2022/08/11 15:54:20;;;;;;;0.20;0.20;;;38.90;38.50;;;;;;4931061;29;20091;-71
2022/08/11 15:56:50;;;;;;;0.40;0.38;;;39.10;38.90;;;;;;4912572;29;20043;-71
2022/08/11 16:04:39;;;;;;;0.20;0.13;;;41.00;38.10;;;;;;4915076;29;20119;-70
2022/08/11 16:07:12;;;;;;;0.20;0.20;;;39.90;38.60;;;;;;4915794;29;20039;-69
2022/08/11 16:10:06;;;;;;;0.38;0.28;;;38.20;38.90;;;;;;4915658;29;20489;-70
2022/08/11 16:18:56;;;;;;;0.30;0.30;;;38.90;38.80;;;;;;4896958;29;20151;-70
2022/08/11 16:21:28;;;;;;;0.30;0.28;;;38.40;39.60;;;;;;4911803;29;20405;-70
2022/08/11 16:23:57;;;;;;;0.13;0.10;;;38.30;38.80;;;;;;4911895;29;20088;-69
2022/08/11 16:26:24;;;;;;;0.70;0.30;;;38.00;39.20;;;;;;4912269;29;20036;-71
2022/08/11 16:28:53;;;;;;;0.43;0.40;;;39.00;39.00;;;;;;4927387;29;20040;-70
2022/08/11 16:31:22;;;;;;;0.40;0.38;;;40.50;38.30;;;;;;4915748;29;20580;-71
2022/08/11 16:33:52;;;;;;;0.05;0.05;;;39.00;38.30;;;;;;4915286;29;20033;-71
2022/08/11 16:39:08;;;;;;;0.15;0.13;;;37.30;38.90;;;;;;4915122;29;20050;-69
2022/08/11 16:47:16;;;;;;;0.68;0.57;;;38.70;39.20;;;;;;4915562;29;20052;-71
2022/08/11 16:49:51;;;;;;;0.17;0.17;;;38.90;39.00;;;;;;4916010;29;20035;-71
2022/08/11 16:52:17;;;;;;;0.55;0.38;;;38.40;38.50;;;;;;4914740;29;20368;-70
2022/08/11 16:54:46;;;;;;;0.10;0.10;;;37.80;39.20;;;;;;4916446;29;20103;-71
2022/08/11 17:00:14;;;;;;;0.10;0.10;;;36.90;39.50;;;;;;4914454;29;20032;-70
2022/08/11 17:14:30;;;;;;;0.20;0.10;;;36.50;39.80;;;;;;4927525;29;20083;-69
2022/08/11 17:16:59;;;;;;;0.05;0.03;;;36.80;39.60;;;;;;4929246;29;20032;-69
2022/08/11 17:19:31;;;;;;;0.10;0.10;;;37.10;39.30;;;;;;4930421;29;20036;-69
2022/08/11 17:24:45;;;;;;;0.10;0.10;;;37.30;39.60;;;;;;4927509;29;20083;-70
2022/08/11 17:27:15;;;;;;;0.10;0.00;;;36.20;39.60;;;;;;4930312;29;20488;-71
2022/08/11 17:29:49;;;;;;;0.32;0.30;;;35.90;39.70;;;;;;4914325;29;20135;-71
2022/08/11 17:38:19;;;;;;;0.30;0.22;;;37.10;39.60;;;;;;4904714;29;20051;-71
2022/08/11 17:49:20;;;;;;;0.10;0.10;;;36.50;39.50;;;;;;4927337;29;20035;-71
2022/08/11 18:00:09;;;;;;;0.90;0.43;;;36.60;39.00;;;;;;4914481;29;20028;-70
2022/08/11 18:05:31;;;;;;;0.00;0.00;;;36.20;39.70;;;;;;4908084;29;20060;-70
